createdAt,value
2022-12-03T00:00:17.384Z,1.10
2022-12-03T00:02:46.550Z,1.30
2022-12-03T00:05:15.548Z,1.00
2022-12-03T00:07:45.633Z,0.80
2022-12-03T00:10:14.846Z,0.90
2022-12-03T00:12:43.836Z,0.93
2022-12-03T00:15:14.515Z,0.77
2022-12-03T00:17:44.508Z,0.98
2022-12-03T00:20:20.957Z,1.20
2022-12-03T00:22:49.957Z,0.90
2022-12-03T00:25:19.246Z,1.30
2022-12-03T00:27:47.629Z,0.55
2022-12-03T00:30:16.952Z,0.88
2022-12-03T00:32:45.857Z,1.17
2022-12-03T00:35:14.865Z,0.73
2022-12-03T00:37:43.861Z,1.45
2022-12-03T00:40:13.621Z,1.15
2022-12-03T00:42:42.858Z,1.13
2022-12-03T00:45:12.288Z,0.80
2022-12-03T00:47:40.768Z,1.02
2022-12-03T00:50:10.365Z,0.90
2022-12-03T00:52:39.044Z,0.82
2022-12-03T00:55:08.012Z,0.88
2022-12-03T00:57:36.972Z,0.88
2022-12-03T01:00:08.058Z,0.88
2022-12-03T01:02:37.110Z,1.10
2022-12-03T01:05:06.046Z,1.17
2022-12-03T01:07:35.237Z,0.70
2022-12-03T01:10:06.093Z,0.90
2022-12-03T01:12:35.062Z,1.10
2022-12-03T01:15:04.036Z,0.70
2022-12-03T01:17:32.989Z,0.85
2022-12-03T01:20:03.111Z,0.90
2022-12-03T01:22:32.017Z,1.33
2022-12-03T01:25:01.022Z,1.05
2022-12-03T01:27:30.335Z,1.30
2022-12-03T01:29:59.269Z,1.48
2022-12-03T01:32:28.260Z,1.30
2022-12-03T01:34:57.756Z,1.10
2022-12-03T01:37:27.984Z,1.50
2022-12-03T01:39:58.118Z,1.30
2022-12-03T01:42:30.476Z,1.05
2022-12-03T01:45:01.145Z,1.08
2022-12-03T01:47:33.971Z,1.45
2022-12-03T01:50:09.996Z,1.38
2022-12-03T01:52:40.369Z,1.27
2022-12-03T01:55:16.001Z,1.05
2022-12-03T01:57:48.366Z,1.25
2022-12-03T02:00:20.616Z,1.33
2022-12-03T02:02:55.425Z,1.33
2022-12-03T02:05:37.458Z,0.90
2022-12-03T02:08:33.236Z,0.95
2022-12-03T02:11:07.651Z,1.10
2022-12-03T02:13:36.233Z,1.20
2022-12-03T02:16:05.978Z,1.33
2022-12-03T02:18:35.059Z,1.10
2022-12-03T02:21:18.854Z,1.33
2022-12-03T02:26:33.787Z,0.80
2022-12-03T02:29:04.061Z,1.08
2022-12-03T02:31:33.810Z,0.88
2022-12-03T02:34:07.856Z,1.00
2022-12-03T02:36:37.589Z,0.70
2022-12-03T02:39:07.092Z,2.00
2022-12-03T02:41:54.284Z,0.88
2022-12-03T02:44:22.525Z,1.20
2022-12-03T02:46:50.906Z,1.02
2022-12-03T02:49:19.110Z,1.02
2022-12-03T02:51:49.160Z,0.90
2022-12-03T02:54:18.056Z,1.10
2022-12-03T02:56:46.856Z,0.90
2022-12-03T02:59:15.634Z,0.98
2022-12-03T03:01:45.581Z,1.45
2022-12-03T03:04:14.267Z,1.35
2022-12-03T03:06:42.684Z,1.27
2022-12-03T03:09:11.760Z,0.98
2022-12-03T03:11:40.565Z,1.35
2022-12-03T03:14:09.070Z,0.90
2022-12-03T03:16:38.177Z,0.93
2022-12-03T03:19:06.686Z,1.08
2022-12-03T03:21:35.981Z,1.00
2022-12-03T03:24:05.125Z,1.10
2022-12-03T03:26:34.205Z,1.10
2022-12-03T03:29:04.634Z,0.93
2022-12-03T03:31:33.994Z,0.95
2022-12-03T03:34:03.125Z,0.90
2022-12-03T03:36:32.197Z,1.42
2022-12-03T03:39:01.222Z,1.38
2022-12-03T03:41:31.707Z,1.10
2022-12-03T03:44:00.410Z,1.65
2022-12-03T03:46:29.838Z,1.75
2022-12-03T03:48:58.869Z,1.02
2022-12-03T03:51:28.110Z,1.10
2022-12-03T03:53:56.562Z,1.85
2022-12-03T03:56:25.548Z,1.75
2022-12-03T03:58:54.533Z,1.40
2022-12-03T04:01:23.516Z,1.85
2022-12-03T04:03:54.085Z,0.90
2022-12-03T04:06:23.144Z,1.05
2022-12-03T04:08:52.069Z,1.80
2022-12-03T04:11:39.439Z,1.35
2022-12-03T04:14:08.384Z,0.95
2022-12-03T04:16:37.000Z,0.88
2022-12-03T04:19:06.113Z,1.40
2022-12-03T04:21:53.288Z,1.05
2022-12-03T04:24:22.307Z,1.52
2022-12-03T04:27:09.413Z,1.30
2022-12-03T04:29:38.460Z,1.42
2022-12-03T04:32:26.834Z,1.67
2022-12-03T04:35:13.398Z,2.10
2022-12-03T04:37:41.631Z,1.42
2022-12-03T04:40:30.868Z,1.10
2022-12-03T04:43:00.855Z,1.85
2022-12-03T04:45:29.797Z,1.30
2022-12-03T04:47:58.805Z,1.40
2022-12-03T04:50:27.754Z,1.50
2022-12-03T04:52:56.701Z,1.30
2022-12-03T04:55:25.691Z,1.25
2022-12-03T04:57:55.111Z,1.45
2022-12-03T05:00:24.134Z,1.95
2022-12-03T05:02:53.596Z,1.48
2022-12-03T05:05:22.118Z,2.55
2022-12-03T05:07:51.071Z,2.00
2022-12-03T05:10:20.259Z,1.58
2022-12-03T05:12:49.039Z,2.13
2022-12-03T05:15:17.540Z,1.45
2022-12-03T05:17:46.526Z,1.83
2022-12-03T05:20:34.316Z,1.73
2022-12-03T05:23:03.404Z,2.10
2022-12-03T05:25:32.386Z,1.50
2022-12-03T05:28:00.966Z,1.70
2022-12-03T05:30:30.131Z,1.95
2022-12-03T05:32:59.274Z,2.08
2022-12-03T05:35:29.798Z,1.95
2022-12-03T05:38:02.010Z,1.55
2022-12-03T05:40:30.930Z,1.98
2022-12-03T05:43:07.147Z,3.00
2022-12-03T05:45:39.055Z,2.28
2022-12-03T05:48:10.491Z,1.98
2022-12-03T05:50:40.925Z,1.85
2022-12-03T05:53:10.880Z,2.08
2022-12-03T05:55:39.926Z,1.58
2022-12-03T05:58:09.126Z,1.80
2022-12-03T06:00:42.893Z,2.10
2022-12-03T06:03:12.361Z,1.80
2022-12-03T06:05:41.499Z,1.77
2022-12-03T06:08:10.544Z,2.13
2022-12-03T06:10:39.620Z,1.90
2022-12-03T06:13:08.536Z,1.42
2022-12-03T06:15:43.320Z,2.60
2022-12-03T06:18:13.202Z,2.50
2022-12-03T06:20:41.814Z,2.83
2022-12-03T06:23:10.840Z,2.10
2022-12-03T06:25:39.881Z,1.63
2022-12-03T06:28:09.029Z,1.30
2022-12-03T06:30:37.782Z,1.92
2022-12-03T06:33:06.942Z,1.40
2022-12-03T06:35:36.941Z,1.55
2022-12-03T06:38:05.983Z,1.23
2022-12-03T06:40:35.068Z,1.60
2022-12-03T06:43:04.072Z,1.77
2022-12-03T06:45:32.595Z,1.40
2022-12-03T06:48:01.611Z,1.45
2022-12-03T06:50:30.648Z,1.40
2022-12-03T06:52:59.614Z,1.35
2022-12-03T06:55:28.635Z,1.60
2022-12-03T06:57:57.640Z,2.35
2022-12-03T07:00:27.062Z,1.58
2022-12-03T07:02:56.596Z,1.65
2022-12-03T07:05:25.631Z,1.17
2022-12-03T07:07:56.909Z,1.70
2022-12-03T07:10:25.953Z,1.33
2022-12-03T07:12:54.458Z,1.20
2022-12-03T07:15:23.730Z,1.40
2022-12-03T07:17:52.225Z,1.10
2022-12-03T07:20:21.522Z,1.33
2022-12-03T07:22:50.505Z,1.13
2022-12-03T07:25:23.168Z,1.10
2022-12-03T07:27:52.239Z,1.33
2022-12-03T07:30:20.995Z,1.10
2022-12-03T07:32:49.879Z,1.35
2022-12-03T07:35:18.813Z,1.48
2022-12-03T07:37:48.220Z,1.10
2022-12-03T07:40:17.233Z,1.05
2022-12-03T07:42:47.223Z,1.17
2022-12-03T07:45:16.188Z,1.77
2022-12-03T07:47:45.122Z,1.77
2022-12-03T07:50:14.415Z,1.30
2022-12-03T07:52:42.995Z,1.20
2022-12-03T07:55:13.471Z,1.52
2022-12-03T07:57:42.505Z,1.00
2022-12-03T08:00:12.813Z,0.95
2022-12-03T08:02:41.906Z,1.52
2022-12-03T08:05:10.562Z,1.50
2022-12-03T08:07:58.425Z,1.25
2022-12-03T08:10:28.023Z,1.45
2022-12-03T08:12:58.290Z,1.80
2022-12-03T08:15:33.805Z,0.85
2022-12-03T08:18:14.420Z,1.60
2022-12-03T08:20:44.996Z,1.33
2022-12-03T08:23:19.717Z,1.67
2022-12-03T08:25:49.130Z,1.70
2022-12-03T08:28:23.548Z,0.75
2022-12-03T08:31:30.867Z,1.20
2022-12-03T08:34:19.623Z,1.13
2022-12-03T08:36:50.330Z,1.27
2022-12-03T08:39:32.756Z,1.10
2022-12-03T08:42:33.485Z,1.20
2022-12-03T08:45:22.313Z,1.77
2022-12-03T08:47:51.230Z,1.00
2022-12-03T08:50:36.571Z,1.00
2022-12-03T08:53:24.641Z,2.45
2022-12-03T08:55:59.261Z,0.82
2022-12-03T08:58:36.222Z,0.90
2022-12-03T09:01:16.418Z,0.88
2022-12-03T09:03:59.265Z,1.08
2022-12-03T09:06:28.358Z,0.82
2022-12-03T09:08:58.136Z,0.90
2022-12-03T09:11:29.314Z,0.98
2022-12-03T09:13:57.757Z,1.52
2022-12-03T09:16:26.721Z,1.23
2022-12-03T09:18:55.811Z,1.38
2022-12-03T09:21:24.863Z,1.15
2022-12-03T09:23:53.912Z,1.30
2022-12-03T09:26:23.051Z,1.15
2022-12-03T09:28:51.979Z,1.15
2022-12-03T09:31:21.051Z,0.98
2022-12-03T09:33:50.462Z,1.08
2022-12-03T09:36:19.061Z,1.50
2022-12-03T09:38:48.427Z,1.13
2022-12-03T09:41:18.622Z,0.98
2022-12-03T09:44:03.751Z,1.02
2022-12-03T09:46:33.627Z,1.77
2022-12-03T09:49:03.261Z,1.20
2022-12-03T09:51:36.617Z,1.02
2022-12-03T09:56:35.134Z,1.38
2022-12-03T09:59:04.979Z,1.30
2022-12-03T10:01:34.094Z,1.10
2022-12-03T10:04:03.457Z,1.58
2022-12-03T10:06:32.537Z,1.20
2022-12-03T10:09:04.582Z,1.33
2022-12-03T10:11:34.852Z,1.08
2022-12-03T10:14:03.832Z,1.30
2022-12-03T10:16:33.084Z,1.45
2022-12-03T10:19:02.430Z,1.02
2022-12-03T10:21:39.684Z,1.20
2022-12-03T10:24:28.604Z,1.48
2022-12-03T10:27:21.823Z,1.10
2022-12-03T10:30:02.115Z,1.25
2022-12-03T10:32:44.433Z,1.23
2022-12-03T10:35:27.419Z,1.10
2022-12-03T10:38:03.955Z,1.15
2022-12-03T10:40:35.211Z,0.85
2022-12-03T10:43:27.090Z,0.90
2022-12-03T10:46:04.946Z,0.93
2022-12-03T10:48:35.110Z,0.98
2022-12-03T10:51:04.048Z,2.20
2022-12-03T10:53:37.446Z,1.65
2022-12-03T10:58:40.291Z,0.98
2022-12-03T11:01:21.228Z,1.00
2022-12-03T11:03:50.814Z,0.95
2022-12-03T11:06:22.279Z,0.93
2022-12-03T11:08:57.154Z,0.95
2022-12-03T11:11:32.391Z,1.27
2022-12-03T11:14:05.850Z,1.20
2022-12-03T11:16:44.068Z,1.00
2022-12-03T11:19:19.683Z,1.98
2022-12-03T11:22:08.799Z,1.33
2022-12-03T11:24:39.981Z,1.50
2022-12-03T11:27:13.673Z,1.40
2022-12-03T11:30:00.424Z,1.10
2022-12-03T11:32:42.067Z,1.17
2022-12-03T11:35:25.904Z,1.10
2022-12-03T11:37:54.630Z,1.30
2022-12-03T11:40:23.189Z,0.85
2022-12-03T11:42:52.185Z,1.15
2022-12-03T11:45:31.752Z,1.63
2022-12-03T11:48:00.676Z,2.08
2022-12-03T11:50:37.621Z,1.70
2022-12-03T11:53:28.023Z,1.10
2022-12-03T11:56:10.625Z,1.17
2022-12-03T11:58:45.256Z,1.30
2022-12-03T12:01:15.526Z,1.63
2022-12-03T12:03:52.459Z,1.40
2022-12-03T12:06:21.952Z,1.20
2022-12-03T12:08:53.647Z,1.38
2022-12-03T12:11:35.607Z,1.00
2022-12-03T12:14:05.729Z,1.13
2022-12-03T12:16:54.082Z,1.45
2022-12-03T12:19:54.358Z,1.20
2022-12-03T12:22:28.958Z,1.20
2022-12-03T12:25:03.065Z,1.23
2022-12-03T12:27:39.330Z,1.40
2022-12-03T12:30:15.716Z,1.60
2022-12-03T12:32:59.142Z,1.95
2022-12-03T12:35:34.159Z,1.17
2022-12-03T12:38:03.062Z,1.67
2022-12-03T12:40:35.242Z,1.20
2022-12-03T12:43:21.929Z,1.50
2022-12-03T12:45:54.790Z,1.20
2022-12-03T12:48:33.349Z,1.65
2022-12-03T12:51:03.086Z,1.25
2022-12-03T12:53:36.807Z,1.13
2022-12-03T12:56:25.593Z,1.40
2022-12-03T12:58:55.405Z,1.50
2022-12-03T13:01:31.798Z,1.50
2022-12-03T13:04:01.020Z,1.48
2022-12-03T13:06:32.999Z,1.63
2022-12-03T13:09:02.431Z,1.48
2022-12-03T13:11:46.985Z,1.55
2022-12-03T13:14:20.252Z,1.58
2022-12-03T13:16:50.177Z,1.35
2022-12-03T13:19:22.914Z,1.20
2022-12-03T13:21:52.429Z,1.55
2022-12-03T13:24:29.275Z,1.63
2022-12-03T13:26:58.935Z,1.70
2022-12-03T13:29:29.516Z,1.63
2022-12-03T13:32:03.670Z,2.00
2022-12-03T13:34:36.207Z,1.50
2022-12-03T13:37:10.831Z,1.48
2022-12-03T13:39:43.336Z,1.30
2022-12-03T13:42:43.348Z,1.67
2022-12-03T13:45:20.736Z,1.38
2022-12-03T13:48:00.224Z,1.58
2022-12-03T13:50:47.754Z,1.58
2022-12-03T13:53:16.665Z,2.50
2022-12-03T13:55:49.020Z,2.05
2022-12-03T13:58:19.093Z,1.50
2022-12-03T14:00:48.115Z,1.55
2022-12-03T14:03:17.176Z,1.95
2022-12-03T14:05:47.188Z,2.22
2022-12-03T14:08:16.201Z,1.45
2022-12-03T14:10:45.183Z,2.38
2022-12-03T14:13:14.148Z,1.60
2022-12-03T14:15:43.085Z,1.70
2022-12-03T14:18:12.049Z,1.90
2022-12-03T14:20:41.030Z,1.70
2022-12-03T14:23:09.771Z,1.65
2022-12-03T14:25:38.733Z,1.60
2022-12-03T14:28:10.295Z,1.58
2022-12-03T14:30:39.447Z,1.33
2022-12-03T14:33:08.380Z,1.65
2022-12-03T14:35:37.333Z,1.63
2022-12-03T14:38:05.916Z,2.00
2022-12-03T14:40:35.977Z,2.20
2022-12-03T14:43:04.726Z,1.70
2022-12-03T14:45:33.676Z,1.67
2022-12-03T14:48:02.558Z,2.03
2022-12-03T14:50:31.852Z,2.00
2022-12-03T14:53:01.497Z,1.92
2022-12-03T14:55:30.113Z,1.60
2022-12-03T14:57:59.105Z,2.17
2022-12-03T15:00:28.333Z,1.95
2022-12-03T15:02:57.397Z,2.50
2022-12-03T15:05:28.862Z,1.90
2022-12-03T15:07:58.218Z,1.50
2022-12-03T15:10:27.290Z,2.22
2022-12-03T15:12:56.218Z,1.75
2022-12-03T15:15:25.161Z,2.10
2022-12-03T15:17:55.241Z,2.05
2022-12-03T15:20:24.166Z,2.40
2022-12-03T15:22:53.059Z,2.35
2022-12-03T15:25:26.100Z,1.90
2022-12-03T15:27:55.114Z,1.60
2022-12-03T15:30:24.105Z,1.85
2022-12-03T15:32:53.127Z,2.33
2022-12-03T15:35:22.070Z,2.45
2022-12-03T15:37:51.073Z,2.28
2022-12-03T15:40:20.228Z,2.50
2022-12-03T15:42:49.257Z,2.67
2022-12-03T15:45:18.680Z,2.92
2022-12-03T15:47:47.837Z,2.90
2022-12-03T15:50:16.919Z,2.38
2022-12-03T15:52:45.662Z,1.92
2022-12-03T15:55:14.797Z,2.92
2022-12-03T15:57:43.828Z,2.25
2022-12-03T16:00:15.044Z,2.65
2022-12-03T16:02:49.073Z,2.13
2022-12-03T16:05:20.266Z,2.50
2022-12-03T16:07:49.241Z,2.08
2022-12-03T16:10:18.717Z,1.95
2022-12-03T16:12:47.756Z,1.88
2022-12-03T16:15:18.222Z,2.47
2022-12-03T16:17:49.481Z,2.03
2022-12-03T16:20:19.642Z,2.45
2022-12-03T16:22:48.231Z,1.80
2022-12-03T16:25:17.423Z,2.03
2022-12-03T16:27:46.370Z,1.95
2022-12-03T16:30:15.725Z,1.90
2022-12-03T16:32:44.821Z,2.05
2022-12-03T16:35:13.744Z,1.95
2022-12-03T16:37:42.515Z,1.73
2022-12-03T16:40:12.033Z,2.15
2022-12-03T16:42:40.879Z,1.75
2022-12-03T16:45:10.665Z,2.08
2022-12-03T16:47:39.853Z,1.92
2022-12-03T16:50:14.580Z,1.98
2022-12-03T16:52:45.010Z,2.28
2022-12-03T16:55:14.049Z,2.28
2022-12-03T16:57:44.069Z,2.25
2022-12-03T17:00:13.608Z,2.72
2022-12-03T17:02:42.708Z,1.98
2022-12-03T17:05:12.919Z,1.88
2022-12-03T17:07:42.705Z,1.95
2022-12-03T17:10:11.889Z,1.95
2022-12-03T17:13:08.404Z,2.00
2022-12-03T17:15:30.084Z,1.95
2022-12-03T17:17:59.189Z,2.00
2022-12-03T17:20:27.717Z,1.92
2022-12-03T17:22:56.696Z,2.22
2022-12-03T17:25:25.156Z,1.85
2022-12-03T17:27:54.336Z,1.85
2022-12-03T17:30:22.602Z,2.00
2022-12-03T17:32:52.099Z,2.03
2022-12-03T17:35:21.261Z,2.50
2022-12-03T17:37:50.261Z,2.42
2022-12-03T17:40:19.319Z,1.90
2022-12-03T17:42:48.283Z,2.05
2022-12-03T17:45:17.318Z,2.53
2022-12-03T17:47:46.383Z,2.67
2022-12-03T17:50:15.106Z,1.85
2022-12-03T17:52:44.124Z,2.15
2022-12-03T17:55:18.013Z,1.58
2022-12-03T17:57:52.949Z,2.05
2022-12-03T18:00:22.674Z,1.30
2022-12-03T18:02:51.341Z,1.63
2022-12-03T18:05:20.287Z,1.48
2022-12-03T18:07:49.305Z,1.55
2022-12-03T18:10:18.752Z,1.52
2022-12-03T18:12:47.180Z,1.40
2022-12-03T18:15:16.228Z,1.65
2022-12-03T18:17:44.658Z,1.42
2022-12-03T18:20:13.815Z,1.13
2022-12-03T18:22:42.970Z,1.50
2022-12-03T18:25:12.230Z,1.30
2022-12-03T18:27:41.177Z,1.38
2022-12-03T18:30:10.697Z,1.10
2022-12-03T18:32:39.100Z,1.10
2022-12-03T18:35:08.142Z,1.48
2022-12-03T18:37:36.891Z,1.05
2022-12-03T18:40:12.672Z,1.40
2022-12-03T18:42:42.395Z,1.40
2022-12-03T18:45:14.821Z,1.15
2022-12-03T18:47:44.305Z,1.10
2022-12-03T18:50:14.396Z,1.20
2022-12-03T18:52:43.210Z,1.20
2022-12-03T18:55:19.433Z,1.50
2022-12-03T18:57:48.442Z,1.20
2022-12-03T19:00:18.137Z,1.20
2022-12-03T19:03:02.342Z,1.50
2022-12-03T19:05:33.857Z,1.42
2022-12-03T19:08:03.395Z,1.33
2022-12-03T19:10:32.450Z,1.20
2022-12-03T19:13:01.435Z,1.02
2022-12-03T19:15:30.515Z,1.30
2022-12-03T19:18:00.488Z,1.20
2022-12-03T19:20:29.455Z,1.30
2022-12-03T19:22:58.465Z,1.27
2022-12-03T19:25:27.561Z,1.30
2022-12-03T19:27:58.617Z,1.20
2022-12-03T19:30:27.735Z,1.70
2022-12-03T19:32:56.497Z,1.17
2022-12-03T19:35:25.570Z,1.48
2022-12-03T19:37:54.500Z,1.30
2022-12-03T19:40:24.633Z,1.20
2022-12-03T19:42:53.252Z,1.27
2022-12-03T19:45:22.011Z,0.98
2022-12-03T19:47:50.952Z,1.20
2022-12-03T19:50:23.170Z,1.20
2022-12-03T19:52:52.897Z,0.90
2022-12-03T19:55:21.834Z,1.00
2022-12-03T19:57:50.922Z,1.00
2022-12-03T20:00:20.807Z,1.25
2022-12-03T20:02:51.129Z,1.25
2022-12-03T20:05:20.291Z,1.58
2022-12-03T20:07:48.979Z,1.08
2022-12-03T20:10:18.104Z,1.23
2022-12-03T20:12:46.881Z,1.10
2022-12-03T20:15:16.026Z,1.10
2022-12-03T20:17:45.007Z,1.02
2022-12-03T20:20:13.796Z,1.45
2022-12-03T20:22:42.684Z,1.13
2022-12-03T20:25:11.844Z,1.40
2022-12-03T20:27:40.925Z,1.50
2022-12-03T20:30:10.590Z,1.10
2022-12-03T20:32:44.913Z,1.23
2022-12-03T20:35:14.373Z,1.20
2022-12-03T20:37:44.382Z,1.27
2022-12-03T20:40:14.611Z,1.00
2022-12-03T20:42:43.089Z,1.30
2022-12-03T20:45:12.591Z,1.10
2022-12-03T20:47:41.082Z,1.33
2022-12-03T20:50:10.630Z,1.10
2022-12-03T20:52:38.919Z,1.23
2022-12-03T20:55:08.244Z,1.15
2022-12-03T20:57:38.563Z,1.20
2022-12-03T21:00:08.826Z,1.13
2022-12-03T21:02:39.607Z,1.00
2022-12-03T21:05:08.900Z,1.27
2022-12-03T21:07:37.597Z,1.10
2022-12-03T21:10:06.619Z,0.90
2022-12-03T21:12:34.793Z,1.15
2022-12-03T21:15:03.830Z,1.02
2022-12-03T21:17:32.906Z,1.70
2022-12-03T21:20:01.919Z,1.23
2022-12-03T21:22:31.864Z,1.20
2022-12-03T21:25:01.943Z,1.10
2022-12-03T21:27:31.615Z,1.35
2022-12-03T21:30:00.636Z,1.20
2022-12-03T21:32:28.885Z,1.40
2022-12-03T21:34:58.015Z,1.15
2022-12-03T21:37:27.029Z,1.00
2022-12-03T21:39:56.293Z,1.00
2022-12-03T21:42:36.679Z,0.90
2022-12-03T21:45:06.988Z,0.98
2022-12-03T21:47:37.523Z,1.00
2022-12-03T21:50:10.504Z,1.25
2022-12-03T21:52:39.732Z,1.00
2022-12-03T21:55:08.585Z,1.10
2022-12-03T21:57:38.410Z,1.00
2022-12-03T22:00:09.939Z,1.05
2022-12-03T22:02:41.712Z,1.45
2022-12-03T22:05:12.213Z,0.95
2022-12-03T22:07:41.739Z,1.10
2022-12-03T22:10:12.909Z,1.17
2022-12-03T22:12:43.414Z,1.23
2022-12-03T22:15:18.358Z,1.00
2022-12-03T22:17:47.961Z,0.90
2022-12-03T22:20:17.472Z,1.02
2022-12-03T22:22:46.003Z,1.40
2022-12-03T22:25:15.134Z,1.10
2022-12-03T22:27:45.278Z,1.00
2022-12-03T22:30:14.819Z,1.23
2022-12-03T22:32:43.812Z,1.25
2022-12-03T22:35:12.603Z,1.27
2022-12-03T22:37:41.639Z,1.13
2022-12-03T22:40:12.156Z,1.17
2022-12-03T22:42:43.976Z,1.25
2022-12-03T22:45:14.895Z,1.38
2022-12-03T22:47:44.002Z,1.20
2022-12-03T22:50:13.154Z,1.20
2022-12-03T22:52:42.156Z,1.00
2022-12-03T22:55:11.630Z,1.20
2022-12-03T22:57:40.704Z,1.23
2022-12-03T23:00:11.662Z,1.35
2022-12-03T23:02:40.630Z,1.25
2022-12-03T23:05:10.249Z,1.33
2022-12-03T23:07:39.347Z,1.38
2022-12-03T23:10:09.148Z,1.23
2022-12-03T23:12:38.585Z,1.30
2022-12-03T23:15:08.537Z,1.55
2022-12-03T23:17:37.667Z,1.40
2022-12-03T23:20:07.287Z,1.50
2022-12-03T23:22:36.318Z,1.50
2022-12-03T23:25:08.594Z,1.52
2022-12-03T23:27:37.579Z,1.50
2022-12-03T23:30:07.049Z,1.35
2022-12-03T23:32:37.350Z,1.70
2022-12-03T23:35:07.450Z,1.65
2022-12-03T23:37:36.965Z,1.52
2022-12-03T23:40:06.412Z,1.42
2022-12-03T23:42:35.475Z,1.80
2022-12-03T23:45:03.889Z,1.48
2022-12-03T23:47:32.447Z,1.55
2022-12-03T23:50:01.377Z,1.60
2022-12-03T23:52:30.587Z,1.63
2022-12-03T23:54:59.547Z,1.77
2022-12-03T23:57:28.945Z,1.92
2022-12-03T23:59:57.964Z,2.25
